Chiriaco Summit, California
Current Conditions -  °F | °C
As of 9:52 AM on Friday 21 Nov 2014 (Local Time) from KTRM Reporting Station
Clear Clear  
Wind Chill: 69°   Ceiling: Unl
Heat Index: 69°   Visibility: 10mi
Dew Point: 46°   Wind: 9mph
Humidity: 44%   Direction: 330°NNW
Pressure: 29.93"   Gusts: NA
Location:  33.7269°N, 116.236°W
Report Text: KTRM 211752Z AUTO 33008KT 10SM CLR 21/08 A2993 RMK AO2 SLP135 60000 T02060078 10206 20094 50014 TSNO
Loading
Personal Weather Stations






























Interactive Weather Map New forecast layout! Learn more

10-Day Weather Forecast

Advertisements
Track Severe Weather on mobile